CheckWX is a tool to help pilots better visualize weather data.  It is not intended as a substitute for an official pre-flight weather briefing.

16:56:36 UTC

GVNP TAF
Praia International Airport
Praia, Cape Verde
TAF GVNP 181100Z 1812/1918 03020KT 9999 FEW015 PROB30 TEMPO 1902/1906 03010KT

Jun-18@
12:00 UTC

Jun-18 @ 12:00 UTC

Jun-19@
18:00 UTC

Jun-19 @ 18:00 UTC

TAF GVNP 181100Z 1812/1918 03020KT 9999 FEW015
Wind
  • 030° at 20 KTS
Cloud Levels
  • Few at 1,500' AGL

Jun-19@
02:00 UTC

Jun-19 @ 02:00 UTC

Jun-19@
06:00 UTC

Jun-19 @ 06:00 UTC

PROB30 TEMPO 1902/1906 03010KT

Temporary - 30% Likelihood

Temporary - 30% Likelihood during this time.

Wind
  • 030° at 10 KTS